Time;durP1;ratioP1;P1;durP2;ratioP2;P2;SDS_P1;SDS_P2;PMS_P1;PMS_P2;Temp;Humidity;BMP_temperature;BMP_pressure;BME280_temperature;BME280_humidity;BME280_pressure;Samples;Min_cycle;Max_cycle;Signal;HPM_P1;HPM_P2
2021/09/23 00:02:35;;;;;;;5.60;5.10;;;14.00;99.90;;;;;;10462318;28;20287;-84
2021/09/23 00:07:37;;;;;;;5.47;4.97;;;14.00;99.90;;;;;;10462502;28;20220;-84
2021/09/23 00:12:41;;;;;;;5.10;4.77;;;14.00;99.90;;;;;;10462131;28;20684;-84
2021/09/23 00:17:47;;;;;;;5.77;4.53;;;14.00;99.90;;;;;;10462697;28;20212;-84
2021/09/23 00:22:50;;;;;;;5.40;5.00;;;13.90;99.90;;;;;;10462224;28;20300;-84
2021/09/23 00:27:54;;;;;;;5.33;4.80;;;13.90;99.90;;;;;;10479246;28;20308;-84
2021/09/23 00:32:56;;;;;;;4.80;4.40;;;13.80;99.90;;;;;;10478361;28;20257;-84
2021/09/23 00:37:59;;;;;;;5.03;4.63;;;13.80;99.90;;;;;;10478561;28;20228;-84
2021/09/23 00:43:05;;;;;;;5.47;4.97;;;13.80;99.90;;;;;;10478322;28;20231;-84
2021/09/23 00:48:07;;;;;;;5.03;4.60;;;13.70;99.90;;;;;;10461742;28;20228;-84
2021/09/23 00:53:12;;;;;;;4.73;4.43;;;13.70;99.90;;;;;;10461616;28;20196;-84
2021/09/23 00:58:17;;;;;;;5.33;4.93;;;13.70;99.90;;;;;;10460435;28;20225;-84
2021/09/23 01:03:21;;;;;;;5.73;5.07;;;13.70;99.90;;;;;;10464034;28;20215;-84
2021/09/23 01:08:28;;;;;;;5.00;4.60;;;13.70;99.90;;;;;;10485875;28;20240;-84
2021/09/23 01:13:34;;;;;;;4.93;4.60;;;13.70;99.90;;;;;;10469261;28;20192;-84
2021/09/23 01:18:41;;;;;;;5.40;4.90;;;13.60;99.90;;;;;;10468605;28;20223;-84
2021/09/23 01:23:46;;;;;;;4.73;4.43;;;13.50;99.90;;;;;;10502507;28;20271;-84
2021/09/23 01:28:51;;;;;;;5.30;4.90;;;13.50;99.90;;;;;;10469100;28;20342;-84
2021/09/23 01:33:55;;;;;;;6.43;4.70;;;13.50;99.90;;;;;;10467896;28;20283;-84
2021/09/23 04:00:08;;;;;;;6.90;6.30;;;12.90;99.90;;;;;;10442993;28;20350;-85
2021/09/23 13:37:05;;;;;;;3.67;3.43;;;18.60;99.90;;;;;;10537876;22;20236;-85
2021/09/23 13:42:11;;;;;;;3.87;3.57;;;18.80;99.90;;;;;;10482443;28;20230;-84
2021/09/23 13:47:22;;;;;;;4.77;4.07;;;18.80;99.90;;;;;;10501615;28;20244;-85
2021/09/23 13:52:25;;;;;;;4.10;3.60;;;18.90;99.90;;;;;;10474437;28;20208;-85
2021/09/23 13:57:34;;;;;;;3.60;3.37;;;18.90;99.90;;;;;;10490594;28;20213;-85
2021/09/23 14:02:38;;;;;;;8.93;4.20;;;19.00;99.90;;;;;;10490162;28;20197;-85
2021/09/23 14:07:46;;;;;;;4.43;4.03;;;19.00;99.90;;;;;;10470706;28;20534;-85
2021/09/23 14:12:50;;;;;;;4.17;3.77;;;19.10;99.90;;;;;;10488468;28;20263;-85
2021/09/23 14:17:58;;;;;;;3.90;3.60;;;19.20;99.90;;;;;;10470796;28;20220;-85
2021/09/23 14:23:01;;;;;;;4.93;4.60;;;19.20;99.90;;;;;;10488382;28;20200;-84
2021/09/23 14:28:05;;;;;;;4.10;3.80;;;19.20;99.90;;;;;;10464149;28;20591;-84
2021/09/23 14:33:07;;;;;;;4.40;4.10;;;19.30;99.90;;;;;;10469996;28;20613;-87
2021/09/23 14:38:11;;;;;;;4.87;4.40;;;19.30;99.90;;;;;;10480664;28;20463;-85
2021/09/23 14:43:14;;;;;;;4.60;4.27;;;19.30;99.90;;;;;;10470647;28;20208;-85
2021/09/23 14:48:16;;;;;;;5.00;4.60;;;19.30;99.90;;;;;;10485972;28;20262;-85
2021/09/23 14:53:19;;;;;;;4.37;4.07;;;19.40;99.90;;;;;;10468370;28;20211;-84
2021/09/23 14:58:21;;;;;;;4.57;4.27;;;19.40;99.90;;;;;;10470075;28;20703;-86
2021/09/23 15:03:24;;;;;;;4.70;4.40;;;19.50;99.90;;;;;;10468595;28;20682;-86
2021/09/23 15:08:27;;;;;;;4.07;3.87;;;19.50;99.90;;;;;;10486576;28;20312;-83
2021/09/23 15:13:29;;;;;;;3.60;3.30;;;19.50;99.90;;;;;;10477130;28;20224;-85
2021/09/23 15:18:32;;;;;;;4.23;3.87;;;19.40;99.90;;;;;;10483584;28;20227;-85
2021/09/23 15:23:35;;;;;;;3.40;3.20;;;19.40;99.90;;;;;;10502740;28;20555;-86
2021/09/23 15:28:58;;;;;;;3.87;3.57;;;19.40;99.90;;;;;;10466465;28;20228;-86
2021/09/23 15:34:11;;;;;;;3.27;3.07;;;19.30;99.90;;;;;;10463326;28;20729;-87
2021/09/23 16:13:25;;;;;;;3.47;3.27;;;19.00;99.90;;;;;;9963045;29;20698;-85
2021/09/23 16:25:02;;;;;;;5.40;3.67;;;18.90;99.90;;;;;;10394290;28;20669;-85
2021/09/23 16:30:08;;;;;;;3.50;3.30;;;18.90;99.90;;;;;;10479118;28;20242;-86
2021/09/23 16:35:11;;;;;;;3.60;3.30;;;18.90;99.90;;;;;;10497634;28;20183;-86
2021/09/23 16:40:15;;;;;;;3.40;3.20;;;18.90;98.90;;;;;;10498669;28;20311;-87
2021/09/23 16:45:18;;;;;;;3.60;3.30;;;18.90;98.50;;;;;;10463021;28;20200;-86
2021/09/23 16:50:21;;;;;;;3.50;3.30;;;19.00;97.70;;;;;;10480487;28;20327;-85
2021/09/23 16:55:24;;;;;;;4.00;3.70;;;19.00;98.10;;;;;;10472950;28;20196;-84
2021/09/23 17:00:28;;;;;;;5.33;4.47;;;18.90;98.70;;;;;;10523845;28;20208;-84
2021/09/23 17:05:30;;;;;;;3.87;3.57;;;18.80;98.20;;;;;;10479265;28;20193;-86
2021/09/23 17:10:33;;;;;;;4.40;4.10;;;18.70;99.00;;;;;;10496606;28;20255;-84
2021/09/23 17:15:38;;;;;;;4.10;3.73;;;18.50;99.80;;;;;;10479519;28;20197;-85
2021/09/23 17:20:40;;;;;;;6.00;5.50;;;18.50;99.20;;;;;;10480969;28;20197;-86
2021/09/23 17:25:46;;;;;;;4.50;4.10;;;18.30;99.50;;;;;;10483586;28;20619;-85
2021/09/23 17:30:49;;;;;;;3.87;3.60;;;18.20;99.90;;;;;;10462563;28;20270;-85
2021/09/23 17:35:52;;;;;;;9.50;8.57;;;18.10;99.90;;;;;;10477559;28;20232;-85
2021/09/23 17:40:56;;;;;;;24.07;20.70;;;18.00;99.90;;;;;;10482469;28;20282;-82
2021/09/23 17:46:01;;;;;;;12.50;11.20;;;17.90;99.90;;;;;;10483218;28;20267;-84
2021/09/23 17:51:03;;;;;;;5.67;5.27;;;17.70;99.90;;;;;;10457926;28;20235;-84
2021/09/23 17:56:06;;;;;;;7.30;6.70;;;17.60;99.90;;;;;;10462000;28;20200;-85
2021/09/23 18:01:10;;;;;;;11.70;10.60;;;17.50;99.90;;;;;;10483641;28;20234;-82
2021/09/23 18:06:12;;;;;;;4.00;3.70;;;17.40;99.90;;;;;;10488888;28;20192;-85
2021/09/23 18:11:15;;;;;;;5.23;4.93;;;17.40;99.90;;;;;;10449495;28;20249;-83
2021/09/23 18:16:18;;;;;;;4.00;3.60;;;17.30;99.90;;;;;;10446895;28;20625;-86
2021/09/23 18:21:21;;;;;;;5.80;5.40;;;17.20;99.90;;;;;;10493593;28;20537;-84
2021/09/23 18:26:23;;;;;;;5.20;4.70;;;17.10;99.90;;;;;;10470880;28;20260;-82
2021/09/23 18:31:27;;;;;;;4.73;4.43;;;17.00;99.90;;;;;;10507315;28;20262;-83
2021/09/23 18:36:30;;;;;;;5.40;4.67;;;17.00;99.90;;;;;;10486060;28;20850;-86
2021/09/23 18:41:33;;;;;;;5.20;4.67;;;17.00;99.90;;;;;;10505133;28;20604;-86
2021/09/23 18:46:37;;;;;;;4.47;4.17;;;16.90;99.90;;;;;;10487759;28;20217;-86
2021/09/23 18:51:39;;;;;;;5.60;5.20;;;16.80;99.90;;;;;;10483017;28;20223;-86
2021/09/23 18:56:41;;;;;;;5.80;4.53;;;16.70;99.90;;;;;;10506259;28;20850;-86
2021/09/23 19:01:45;;;;;;;5.30;4.80;;;16.80;99.90;;;;;;10469914;28;20196;-86
2021/09/23 19:06:48;;;;;;;4.50;4.20;;;16.70;99.90;;;;;;10463966;28;20316;-83
2021/09/23 19:11:51;;;;;;;4.03;3.63;;;16.70;99.90;;;;;;10428885;28;20204;-85
2021/09/23 19:16:54;;;;;;;4.80;4.40;;;16.60;99.90;;;;;;10461880;28;20217;-85
2021/09/23 19:21:56;;;;;;;4.30;4.00;;;16.60;99.90;;;;;;10427740;28;20197;-84
2021/09/23 19:27:02;;;;;;;4.20;3.90;;;16.60;99.90;;;;;;10431962;28;20227;-84
2021/09/23 19:32:07;;;;;;;5.20;4.80;;;16.60;99.90;;;;;;10428981;28;20296;-86
2021/09/23 19:37:10;;;;;;;5.97;5.17;;;16.50;99.90;;;;;;10456735;28;20221;-83
2021/09/23 19:42:12;;;;;;;5.13;4.73;;;16.50;99.90;;;;;;10513776;28;20432;-84
2021/09/23 19:47:16;;;;;;;5.17;4.83;;;16.50;99.90;;;;;;10484803;28;20282;-86
2021/09/23 19:52:18;;;;;;;5.37;4.97;;;16.50;99.90;;;;;;10475145;28;20197;-85
2021/09/23 19:57:21;;;;;;;5.03;4.73;;;16.50;99.90;;;;;;10496645;28;20235;-83
2021/09/23 20:02:54;;;;;;;4.90;4.50;;;16.50;99.90;;;;;;10502955;28;20207;-83
2021/09/23 20:08:31;;;;;;;5.23;4.83;;;16.50;99.90;;;;;;10500817;28;20239;-84
2021/09/23 20:13:35;;;;;;;5.50;5.20;;;16.50;99.90;;;;;;10479544;28;20287;-83
2021/09/23 20:18:37;;;;;;;5.90;5.50;;;16.50;99.90;;;;;;10475542;28;20707;-85
2021/09/23 20:23:39;;;;;;;5.70;5.30;;;16.60;99.90;;;;;;10483408;28;20239;-84
2021/09/23 20:28:43;;;;;;;5.37;4.97;;;16.50;99.90;;;;;;10498670;28;20213;-84
2021/09/23 20:33:46;;;;;;;6.00;5.43;;;16.60;99.90;;;;;;10517534;28;20208;-84
2021/09/23 20:38:52;;;;;;;6.37;5.87;;;16.60;99.90;;;;;;10508290;28;20227;-84
2021/09/23 20:43:59;;;;;;;6.00;5.43;;;16.60;99.90;;;;;;10483943;28;20239;-82
2021/09/23 20:49:01;;;;;;;5.90;5.47;;;16.70;99.90;;;;;;10494625;28;20281;-83
2021/09/23 20:54:11;;;;;;;10.47;6.83;;;16.70;99.90;;;;;;10508393;28;20208;-85
2021/09/23 20:59:35;;;;;;;6.93;6.33;;;16.70;99.90;;;;;;10469581;28;20215;-82
2021/09/23 21:04:38;;;;;;;6.87;6.37;;;16.60;99.90;;;;;;10493822;28;20199;-85
2021/09/23 21:10:05;;;;;;;5.87;5.43;;;16.60;99.90;;;;;;10466601;28;20252;-82
2021/09/23 21:15:14;;;;;;;6.93;6.33;;;16.50;99.90;;;;;;10475371;28;20668;-81
2021/09/23 21:20:18;;;;;;;6.20;5.70;;;16.50;99.90;;;;;;10500064;28;20219;-84
2021/09/23 21:25:21;;;;;;;5.47;5.07;;;16.50;99.90;;;;;;10490546;28;20200;-84
2021/09/23 21:30:25;;;;;;;5.20;4.90;;;16.40;99.90;;;;;;10491278;28;20221;-84
2021/09/23 21:35:27;;;;;;;6.57;6.07;;;16.40;99.90;;;;;;10491781;28;20201;-85
2021/09/23 21:40:32;;;;;;;5.80;5.40;;;16.40;99.90;;;;;;10501073;28;21861;-83
2021/09/23 21:45:36;;;;;;;6.60;6.10;;;16.40;99.90;;;;;;10494709;28;20212;-82
2021/09/23 21:50:38;;;;;;;6.17;5.67;;;16.40;99.90;;;;;;10478538;28;20236;-82
2021/09/23 21:55:41;;;;;;;5.80;5.40;;;16.40;99.90;;;;;;10482822;28;20200;-82
2021/09/23 22:00:50;;;;;;;6.77;5.97;;;16.30;99.90;;;;;;10479739;28;20216;-83
2021/09/23 22:05:54;;;;;;;6.50;5.93;;;16.30;99.90;;;;;;10480191;28;20269;-82
2021/09/23 22:10:56;;;;;;;6.80;6.30;;;16.30;99.90;;;;;;10480779;28;20209;-83
2021/09/23 22:16:00;;;;;;;6.50;6.10;;;16.20;99.90;;;;;;10502447;28;20217;-83
2021/09/23 22:21:02;;;;;;;6.13;5.73;;;16.20;99.90;;;;;;10483149;28;20220;-85
2021/09/23 22:26:05;;;;;;;6.10;5.60;;;16.20;99.90;;;;;;10480788;28;20204;-83
2021/09/23 22:31:12;;;;;;;6.73;6.13;;;16.10;99.90;;;;;;10477625;28;20239;-85
2021/09/23 22:36:15;;;;;;;6.73;6.20;;;16.10;99.90;;;;;;10498849;28;20219;-82
2021/09/23 22:41:18;;;;;;;7.03;6.53;;;16.10;99.90;;;;;;10474393;28;20231;-83
2021/09/23 22:46:22;;;;;;;6.33;5.73;;;16.00;99.90;;;;;;10472206;28;20583;-82
2021/09/23 22:51:24;;;;;;;8.47;5.80;;;16.00;99.90;;;;;;10440113;28;20229;-84
2021/09/23 22:56:28;;;;;;;5.70;5.30;;;16.00;99.90;;;;;;10505530;28;20213;-85
2021/09/23 23:01:31;;;;;;;6.57;6.07;;;16.00;99.90;;;;;;10513905;28;20204;-85
2021/09/23 23:06:34;;;;;;;6.30;5.70;;;16.00;99.90;;;;;;10511227;28;20244;-82
2021/09/23 23:11:36;;;;;;;6.20;5.80;;;16.00;99.90;;;;;;10475362;28;20295;-83
2021/09/23 23:16:39;;;;;;;5.77;5.37;;;16.00;99.90;;;;;;10491636;28;20224;-84
2021/09/23 23:21:41;;;;;;;6.37;5.87;;;16.00;99.90;;;;;;10455488;28;20201;-82
2021/09/23 23:26:44;;;;;;;5.97;5.57;;;16.00;99.90;;;;;;10476585;28;20228;-82
2021/09/23 23:31:47;;;;;;;5.53;5.13;;;16.00;99.90;;;;;;10489484;28;20217;-82
2021/09/23 23:36:49;;;;;;;5.93;5.53;;;16.00;99.90;;;;;;10473420;28;20224;-83
2021/09/23 23:41:53;;;;;;;6.03;5.53;;;16.00;99.90;;;;;;10485442;28;20200;-83
2021/09/23 23:46:59;;;;;;;5.70;5.30;;;16.00;99.90;;;;;;10481326;28;20252;-82
2021/09/23 23:52:01;;;;;;;5.83;5.43;;;16.00;99.90;;;;;;10497248;28;20225;-83
2021/09/23 23:57:04;;;;;;;5.93;5.43;;;16.00;99.90;;;;;;10443130;28;20218;-84
